• Join FlightAware (Why Join?)
  • Login
  • US Flag 
 
05:22AM EST


 

Airport Tracker/Info


-or-


 

Live Flight TrackerFlight Track Log ✈ GEC8188 ✈ 30-Jun-2013 ✈ EDDF / FRA - KORD

Flight Track Log - Related Links

Times and Time Zones

All times are in EDT time to prevent confusion due to time zone crossing. See the GEC8188 flight status page for this flight to view local times or setup timezone preferences in your user account.

Time Position Orientation Groundspeed Altitude Reporting Facility
EDT Latitude Longitude Course Direction KTS MPH feet Rate Location/Type
08:35PM 56.8818 -46.9775 304° West  Level Estimated
08:36PM 56.8540 -47.2120 258° West  Level Estimated
08:36PM 67.2870 -47.7550 258° West 479 551 32,100  Level FlightAware
08:37PM 56.8257 -47.4463 258° West  Level Estimated
08:37PM 67.2620 -47.9610 253° West 478 550 32,100  Level FlightAware
08:38PM 67.2330 -48.2000 253° West 475 547 32,000 -120 Descending FlightAware
08:38PM 67.2040 -48.4330 252° West 473 544 32,000  Level FlightAware
08:39PM 67.1670 -48.7330 252° West 471 542 32,000  Level FlightAware
08:40PM 67.1390 -48.9470 251° West 468 539 32,000  Level FlightAware
08:41PM 67.1110 -49.1700 252° West 470 541 32,000  Level FlightAware
08:41PM 67.0820 -49.3910 251° West 474 545 32,000 60 Level FlightAware
08:42PM 67.0520 -49.6160 251° West 477 549 32,100 60 Climbing FlightAware
08:43PM 67.0210 -49.8460 251° West 479 551 32,100  Level FlightAware
08:43PM 66.9910 -50.0680 251° West 478 550 32,100 -120 Level FlightAware
08:44PM 66.9570 -50.2800 248° West 476 548 32,000 -120 Descending FlightAware
08:45PM 66.9290 -50.4580 248° West 475 547 32,000  Level FlightAware
08:46PM 66.8780 -50.7790 248° West 474 545 32,000  Level FlightAware
08:46PM 66.8450 -50.9790 247° West 473 544 32,000  Level FlightAware
08:47PM 66.8090 -51.2020 248° West 473 544 32,000  Level FlightAware
08:48PM 66.7730 -51.4220 248° West 474 545 32,000  Level FlightAware
08:48PM 66.7380 -51.6280 247° West 474 545 32,000  Level FlightAware
08:49PM 66.7000 -51.8520 247° West 476 548 32,000 60 Level FlightAware
08:50PM 66.6680 -52.0410 247° West 476 548 32,100 60 Climbing FlightAware
08:51PM 66.6310 -52.2520 246° West 476 548 32,100 -60 Level FlightAware
08:52PM 66.5780 -52.5560 246° West 475 547 32,000 -60 Descending FlightAware
08:52PM 66.5420 -52.7600 246° West 473 544 32,000  Level FlightAware
08:53PM 66.5050 -52.9700 246° West 473 544 32,000  Level FlightAware
08:54PM 66.4670 -53.1770 245° Southwest 471 542 32,000  Level FlightAware
08:54PM 66.4300 -53.3790 245° Southwest 470 541 32,000  Level FlightAware
08:55PM 66.3960 -53.5600 245° Southwest 470 541 32,000  Level FlightAware
08:56PM 66.3490 -53.8110 245° Southwest 470 541 32,000  Level FlightAware
08:57PM 66.3210 -53.9610 245° Southwest 470 541 32,000  Level FlightAware
08:58PM 66.2730 -54.2190 245° Southwest 470 541 32,000  Level FlightAware
08:58PM 66.2450 -54.3690 245° Southwest 470 541 32,000  Level FlightAware
08:59PM 66.1960 -54.6260 245° Southwest 470 541 32,000  Level FlightAware
09:00PM 66.1680 -54.7760 245° Southwest 470 541 32,000  Level FlightAware
09:01PM 66.1300 -54.9790 245° Southwest 470 541 32,000  Level FlightAware
09:01PM 66.1020 -55.1280 245° Southwest 470 541 32,000  Level FlightAware
09:02PM 66.0640 -55.3260 245° Southwest 470 541 32,000  Level FlightAware
09:03PM 66.0360 -55.4740 245° Southwest 470 541 32,000  Level FlightAware
09:03PM 66.0070 -55.6270 245° Southwest 470 541 32,000  Level FlightAware
09:04PM 65.9690 -55.8240 245° Southwest 470 541 32,000  Level FlightAware
09:07PM 65.7885 -56.3943 233° Southwest  Level Estimated
09:08PM 65.7132 -56.6280 232° Southwest  Level Estimated
09:09PM 65.6376 -56.8603 232° Southwest  Level Estimated
09:10PM 65.5616 -57.0913 232° Southwest  Level Estimated
09:11PM 65.4852 -57.3209 231° Southwest  Level Estimated
09:12PM 65.4085 -57.5492 231° Southwest  Level Estimated
09:13PM 65.3315 -57.7761 231° Southwest  Level Estimated
09:14PM 65.2897 -58.0723 251° West  Level FlightAware Approximate
09:14PM 65.3000 -58.7667 250° West 480 552 32,000  Level Montreal Center
09:15PM 65.2473 -58.3676 251° West  Level FlightAware Approximate
09:15PM 65.2333 -59.0500 241° Southwest 480 552 32,000  Level Montreal Center
09:16PM 65.2044 -58.6619 251° West  Level FlightAware Approximate
09:16PM 65.1500 -59.2667 228° Southwest 470 541 32,000  Level Montreal Center
09:17PM 65.1609 -58.9553 251° West  Level FlightAware Approximate
09:17PM 65.0833 -59.6000 245° Southwest 480 552 32,000  Level Gander Center
09:17PM 65.0167 -59.7667 227° Southwest 480 552 32,000  Level Gander Center
09:18PM 65.1168 -59.2477 250° West  Level FlightAware Approximate
09:18PM 64.9333 -60.0000 230° Southwest 480 552 32,000  Level Gander Center
09:19PM 65.0721 -59.5392 250° West  Level FlightAware Approximate
09:19PM 64.8500 -60.2333 230° Southwest 480 552 32,000  Level Gander Center
09:20PM 64.7667 -60.4667 230° Southwest 480 552 32,000  Level Gander Center
09:21PM 64.6833 -60.7000 230° Southwest 480 552 32,000  Level Gander Center
09:22PM 64.6000 -60.9333 230° Southwest 470 541 32,000  Level Gander Center
09:23PM 64.5167 -61.1667 230° Southwest 460 529 32,000  Level Gander Center
09:24PM 64.4333 -61.3667 226° Southwest 460 529 32,000  Level Gander Center
09:25PM 64.3667 -61.5833 235° Southwest 460 529 32,000  Level Gander Center
09:26PM 64.2833 -61.8167 231° Southwest 460 529 32,000  Level Gander Center
09:27PM 64.2000 -62.0833 234° Southwest 460 529 32,000  Level Gander Center
09:28PM 64.1000 -62.3000 223° Southwest 460 529 32,000  Level Gander Center
09:29PM 64.0167 -62.4833 224° Southwest 460 529 32,000  Level Gander Center
09:30PM 63.9333 -62.7167 231° Southwest 460 529 32,000  Level Gander Center
09:31PM 63.8500 -62.9333 229° Southwest 460 529 32,000  Level Gander Center
09:32PM 63.7667 -63.1500 229° Southwest 460 529 32,000  Level Gander Center
09:33PM 63.6833 -63.3667 229° Southwest 470 541 32,000  Level Gander Center
09:34PM 63.5833 -63.5833 224° Southwest 470 541 32,000  Level Gander Center
09:35PM 63.5000 -63.8000 229° Southwest 480 552 32,000  Level Gander Center
09:36PM 63.4167 -64.0167 229° Southwest 470 541 32,000  Level Gander Center
09:37PM 63.3167 -64.2333 224° Southwest 480 552 32,000  Level Gander Center
09:38PM 63.2333 -64.4500 230° Southwest 480 552 32,000  Level Gander Center
09:39PM 63.1333 -64.6500 222° Southwest 490 564 32,000  Level Gander Center
09:40PM 63.0500 -64.8667 230° Southwest 480 552 32,000  Level Gander Center
09:41PM 62.9500 -65.0667 222° Southwest 490 564 32,000  Level Gander Center
09:42PM 62.8500 -65.2833 225° Southwest 490 564 32,000  Level Gander Center
09:43PM 62.7500 -65.4833 223° Southwest 490 564 32,000  Level Gander Center
09:44PM 62.6333 -65.6833 218° Southwest 490 564 32,000  Level Gander Center
09:45PM 62.5500 -65.8833 228° Southwest 490 564 32,000  Level Gander Center
09:46PM 62.4500 -66.0833 223° Southwest 500 575 32,000  Level Gander Center
09:47PM 62.3333 -66.2500 214° Southwest 490 564 32,000  Level Gander Center
09:48PM 62.2500 -66.4500 228° Southwest 500 575 32,000  Level Gander Center
09:49PM 62.1500 -66.6500 223° Southwest 500 575 32,000  Level Gander Center
09:50PM 62.0333 -66.8333 216° Southwest 500 575 32,000  Level Gander Center
09:51PM 61.9333 -67.0333 223° Southwest 500 575 32,000  Level Gander Center
09:52PM 61.8167 -67.2167 217° Southwest 500 575 32,000  Level Gander Center
09:53PM 61.7167 -67.4167 224° Southwest 500 575 32,000  Level Gander Center
09:54PM 61.6167 -67.6000 221° Southwest 500 575 32,000  Level Gander Center
09:55PM 61.5167 -67.8000 224° Southwest 500 575 32,000  Level Gander Center
09:56PM 61.4000 -67.9833 217° Southwest 500 575 32,000  Level Gander Center
09:57PM 61.3000 -68.1667 221° Southwest 500 575 32,000  Level Gander Center
09:58PM 61.2000 -68.3500 221° Southwest 500 575 32,100  Climbing Gander Center
09:59PM 61.1000 -68.5333 222° Southwest 500 575 32,100 -60 Level Gander Center
10:00PM 60.9833 -68.7167 217° Southwest 500 575 32,000 -60 Descending Gander Center
10:01PM 60.8833 -68.9000 222° Southwest 500 575 32,000  Level Gander Center
10:02PM 60.7667 -69.0833 218° Southwest 490 564 32,000  Level Gander Center
10:03PM 60.6500 -69.2667 218° Southwest 500 575 32,000  Level Gander Center
10:04PM 60.5667 -69.4500 227° Southwest 500 575 32,000  Level Gander Center
10:05PM 60.4500 -69.6167 215° Southwest 500 575 32,100  Climbing Gander Center
10:06PM 60.3333 -69.8000 218° Southwest 500 575 32,000 -60 Descending Gander Center
10:07PM 60.2333 -69.9333 214° Southwest 500 575 32,000  Level Gander Center
10:08PM 60.1333 -70.1500 227° Southwest 500 575 32,000  Level Gander Center
10:09PM 60.0167 -70.2833 210° Southwest 500 575 32,000  Level Gander Center
10:10PM 59.9167 -70.4667 223° Southwest 500 575 32,000  Level Gander Center
10:11PM 59.8000 -70.6667 221° Southwest 500 575 32,000  Level Gander Center
10:12PM 59.6833 -70.8333 216° Southwest 500 575 32,000  Level Gander Center
10:13PM 59.5667 -71.0000 216° Southwest 500 575 32,000  Level Gander Center
10:15PM 59.4167 -71.2167 216° Southwest 510 587 32,000  Level Gander Center
10:16PM 59.3167 -71.3500 214° Southwest 500 575 32,000  Level Gander Center
10:17PM 59.2167 -71.4667 211° Southwest 500 575 32,000  Level Montreal Center
10:18PM 59.1000 -71.6333 216° Southwest 500 575 32,000  Level Montreal Center
10:19PM 59.0000 -71.8167 223° Southwest 500 575 32,000  Level Montreal Center
10:20PM 58.8833 -71.9667 214° Southwest 510 587 32,000  Level Montreal Center
10:21PM 58.7667 -72.1333 217° Southwest 490 564 32,000  Level Montreal Center
10:22PM 58.6500 -72.2833 214° Southwest 500 575 32,000  Level Montreal Center
10:23PM 58.5333 -72.4500 217° Southwest 510 587 32,000  Level Montreal Center
10:24PM 58.4333 -72.6167 221° Southwest 510 587 32,000  Level Montreal Center
10:25PM 58.3167 -72.7667 214° Southwest 500 575 32,000  Level Montreal Center
10:26PM 58.2000 -72.9333 217° Southwest 510 587 32,000  Level Montreal Center
10:27PM 58.0833 -73.1000 217° Southwest 510 587 32,000  Level Montreal Center
10:28PM 57.9667 -73.2333 211° Southwest 510 587 32,000  Level Montreal Center
10:29PM 57.8500 -73.4000 217° Southwest 510 587 32,000  Level Montreal Center
10:30PM 57.7333 -73.5667 217° Southwest 510 587 32,000  Level Montreal Center
10:31PM 57.6167 -73.7333 217° Southwest 510 587 32,000  Level Montreal Center
10:32PM 57.5000 -73.8667 212° Southwest 510 587 32,000  Level Montreal Center
10:33PM 57.3833 -74.0333 218° Southwest 510 587 32,000  Level Montreal Center
10:34PM 57.2667 -74.1833 215° Southwest 510 587 32,000  Level Montreal Center
10:35PM 57.1500 -74.3500 218° Southwest 520 598 32,000  Level Montreal Center
10:36PM 57.0333 -74.4833 212° Southwest 520 598 32,000  Level Montreal Center
10:37PM 56.9000 -74.6333 212° Southwest 510 587 32,000  Level Montreal Center
10:38PM 56.7833 -74.7667 212° Southwest 520 598 32,100  Climbing Montreal Center
10:39PM 56.6667 -74.9167 215° Southwest 530 610 32,100 -60 Level Montreal Center
10:40PM 56.5500 -75.0833 218° Southwest 510 587 32,000 -60 Descending Montreal Center
10:41PM 56.4167 -75.2333 212° Southwest 520 598 32,000  Level Montreal Center
10:42PM 56.3000 -75.3500 209° Southwest 520 598 32,000  Level Montreal Center
10:43PM 56.1833 -75.5000 216° Southwest 520 598 32,000  Level Montreal Center
10:44PM 56.0667 -75.6667 219° Southwest 520 598 32,000  Level Montreal Center
10:45PM 55.9500 -75.7833 209° Southwest 520 598 32,000  Level Montreal Center
10:46PM 55.8167 -75.9333 212° Southwest 520 598 32,100  Climbing Montreal Center
10:47PM 55.7000 -76.0833 216° Southwest 520 598 32,000 -60 Descending Montreal Center
10:48PM 55.5833 -76.2333 216° Southwest 520 598 32,000  Level Montreal Center
10:49PM 55.4667 -76.3500 210° Southwest 520 598 32,000  Level Montreal Center
10:50PM 55.3500 -76.5000 216° Southwest 520 598 32,000  Level Montreal Center
10:52PM 55.0833 -76.7833 211° Southwest 520 598 32,000  Level Montreal Center
10:54PM 54.8333 -77.0667 213° Southwest 520 598 32,100  Climbing Montreal Center
10:55PM 54.7167 -77.1833 210° Southwest 520 598 32,000 -60 Descending Montreal Center
10:56PM 54.6000 -77.3333 217° Southwest 510 587 32,000  Level Montreal Center
10:57PM 54.4833 -77.4667 214° Southwest 510 587 32,000  Level Montreal Center
10:58PM 54.3500 -77.5833 207° Southwest 500 575 32,000  Level Montreal Center
10:59PM 54.2333 -77.7167 214° Southwest 500 575 32,000  Level Montreal Center
11:00PM 54.1167 -77.8333 210° Southwest 500 575 32,000  Level Montreal Center
11:01PM 54.0000 -77.9667 214° Southwest 490 564 32,000  Level Montreal Center
11:02PM 53.9000 -78.0833 215° Southwest 490 564 32,000  Level Montreal Center
11:03PM 53.7667 -78.2167 211° Southwest 490 564 32,000  Level Montreal Center
11:05PM 53.5333 -78.4500 211° Southwest 490 564 32,000  Level Montreal Center
11:06PM 53.4167 -78.5667 211° Southwest 500 575 32,000  Level Montreal Center
11:07PM 53.3000 -78.7000 214° Southwest 500 575 32,000  Level Montreal Center
11:08PM 53.1667 -78.8333 211° Southwest 510 587 32,000  Level Montreal Center
11:09PM 53.0500 -78.9667 215° Southwest 510 587 32,100  Climbing Montreal Center
11:10PM 52.9333 -79.0667 207° Southwest 510 587 32,000 -60 Descending Montreal Center
11:11PM 52.8167 -79.2000 215° Southwest 510 587 32,000  Level Montreal Center
11:12PM 52.6833 -79.3000 204° Southwest 500 575 32,000  Level Montreal Center
11:13PM 52.5667 -79.4333 215° Southwest 500 575 32,000  Level Montreal Center
11:14PM 52.4500 -79.5333 208° Southwest 490 564 32,000  Level Montreal Center
11:15PM 52.3167 -79.6500 208° Southwest 490 564 32,000  Level Montreal Center
11:16PM 52.2000 -79.7500 208° Southwest 490 564 32,000  Level Montreal Center
11:17PM 52.0833 -79.8833 215° Southwest 490 564 32,000  Level Montreal Center
11:18PM 51.9833 -79.9833 212° Southwest 490 564 32,000  Level Montreal Center
11:19PM 51.8333 -80.0833 202° Southwest 490 564 32,000  Level Toronto Center
11:20PM 51.7167 -80.2000 212° Southwest 480 552 32,000  Level Toronto Center
11:21PM 51.6000 -80.3000 208° Southwest 480 552 32,000  Level Toronto Center
11:22PM 51.5000 -80.4000 212° Southwest 480 552 32,000  Level Toronto Center
11:23PM 51.3667 -80.5000 205° Southwest 470 541 32,000  Level Toronto Center
11:24PM 51.2667 -80.6167 216° Southwest 480 552 32,000 120 Level Toronto Center
11:25PM 51.1667 -80.7667 223° Southwest 480 552 32,300 600 Climbing Toronto Center
11:26PM 51.0667 -80.9000 220° Southwest 480 552 33,300 840 Climbing Toronto Center
11:27PM 50.9667 -81.0333 220° Southwest 480 552 34,000 300 Climbing Toronto Center
11:28PM 50.8667 -81.1500 216° Southwest 480 552 34,000  Level Toronto Center
11:29PM 50.7667 -81.3167 227° Southwest 480 552 34,000  Level Toronto Center
11:30PM 50.6667 -81.4333 216° Southwest 490 564 34,000  Level Toronto Center
11:31PM 50.5667 -81.5667 220° Southwest 490 564 34,000  Level Toronto Center
11:32PM 50.4500 -81.7167 219° Southwest 480 552 34,000  Level Toronto Center
11:33PM 50.3667 -81.8500 226° Southwest 480 552 34,000  Level Toronto Center
11:34PM 50.2333 -81.9667 209° Southwest 490 564 34,000  Level Toronto Center
11:35PM 50.1333 -82.1000 221° Southwest 480 552 34,000  Level Toronto Center
11:36PM 50.0333 -82.2500 224° Southwest 480 552 34,000 -60 Level Toronto Center
11:37PM 49.9333 -82.3667 217° Southwest 470 541 33,900  Descending Toronto Center
11:38PM 49.8333 -82.5000 221° Southwest 470 541 34,000  Climbing Toronto Center
11:39PM 49.7333 -82.6167 217° Southwest 470 541 34,000  Level Toronto Center
11:40PM 49.6167 -82.7333 213° Southwest 480 552 34,000  Level Toronto Center
11:41PM 49.5167 -82.8667 221° Southwest 480 552 34,000  Level Toronto Center
11:42PM 49.4167 -82.9833 217° Southwest 470 541 34,000 -60 Level Toronto Center
11:43PM 49.3167 -83.1000 217° Southwest 460 529 33,900  Descending Toronto Center
11:44PM 49.2167 -83.2167 217° Southwest 460 529 34,000  Climbing Toronto Center
11:45PM 49.1000 -83.3500 217° Southwest 460 529 34,000  Level Toronto Center
11:51PM 48.5140 -84.0670 217° Southwest 452 520 34,000  Level FlightAware
11:51PM 48.4420 -84.1500 217° Southwest 450 518 34,000  Level FlightAware
11:52PM 48.3680 -84.2330 217° Southwest 448 516 34,000  Level FlightAware
11:53PM 48.3050 -84.3050 217° Southwest 447 514 34,000  Level FlightAware
11:54PM 48.2270 -84.3930 217° Southwest 448 516 34,000  Level FlightAware
11:54PM 48.1610 -84.4670 217° Southwest 447 514 34,000  Level FlightAware
11:55PM 48.0960 -84.5410 217° Southwest 447 514 34,000  Level FlightAware
11:56PM 47.9570 -84.6960 217° Southwest 446 513 34,100  Climbing FlightAware
11:57PM 47.8850 -84.7750 216° Southwest 446 513 34,000 -120 Descending FlightAware
11:58PM 47.8170 -84.8500 217° Southwest 447 514 34,000  Level FlightAware
11:58PM 47.7430 -84.9320 217° Southwest 448 516 34,000  Level FlightAware
11:59PM 47.6820 -85.0000 217° Southwest 449 517 34,000  Level FlightAware
12:00AM 47.6110 -85.0770 216° Southwest 452 520 34,000  Level FlightAware
12:00AM 47.5380 -85.1570 217° Southwest 455 524 34,000 60 Level FlightAware
12:01AM 47.4610 -85.2420 217° Southwest 458 527 34,100 60 Climbing FlightAware
12:02AM 47.3930 -85.3140 216° Southwest 461 531 34,100 -120 Level FlightAware
12:03AM 47.3160 -85.3980 216° Southwest 464 534 34,000  Descending FlightAware
12:03AM 47.2470 -85.4720 216° Southwest 464 534 34,100  Climbing FlightAware
12:04AM 47.1720 -85.5530 216° Southwest 464 534 34,000 -120 Descending FlightAware
12:05AM 47.1020 -85.6270 216° Southwest 463 533 34,000  Level FlightAware
12:05AM 47.0270 -85.7070 216° Southwest 461 531 34,000  Level FlightAware
12:06AM 46.9650 -85.7730 216° Southwest 459 528 34,000  Level FlightAware
12:07AM 46.8820 -85.8620 216° Southwest 455 524 34,000  Level FlightAware
12:07AM 46.8150 -85.9320 216° Southwest 451 519 34,000  Level FlightAware
12:08AM 46.7400 -86.0100 215° Southwest 448 516 34,000  Level FlightAware
12:09AM 46.6730 -86.0820 216° Southwest 446 513 34,000  Level FlightAware
12:10AM 46.6010 -86.1570 216° Southwest 448 516 34,000  Level FlightAware
12:10AM 46.5320 -86.2290 216° Southwest 453 521 34,000 60 Level FlightAware
12:11AM 46.4610 -86.2960 213° Southwest 457 526 34,100 60 Climbing FlightAware
12:12AM 46.3770 -86.3600 208° Southwest 459 528 34,100 -120 Level FlightAware
12:12AM 46.3030 -86.4170 208° Southwest 454 522 34,000 -120 Descending FlightAware
12:13AM 46.2280 -86.4740 208° Southwest 454 522 34,000  Level FlightAware
12:14AM 46.1500 -86.5350 208° Southwest 453 521 34,000  Level FlightAware
12:15AM 45.9780 -86.6630 207° Southwest 454 522 34,000  Level FlightAware
12:18AM 45.7580 -86.8230 207° Southwest 454 522 34,000  Level FlightAware
12:18AM 45.6370 -86.9240 210° Southwest 453 521 34,000  Level FlightAware
12:19AM 45.5590 -86.9810 207° Southwest 453 521 34,000  Level FlightAware
12:20AM 45.4490 -87.0640 208° Southwest 453 521 34,000  Level FlightAware
12:21AM 45.3920 -87.1060 207° Southwest 453 521 34,000  Level FlightAware
12:22AM 45.3160 -87.1610 207° Southwest 453 521 34,000  Level FlightAware
12:22AM 45.2580 -87.2020 206° Southwest 453 521 34,000  Level FlightAware
12:23AM 45.1820 -87.2580 207° Southwest 453 521 34,000  Level FlightAware
12:24AM 45.0460 -87.3640 209° Southwest 460 529 34,000  Level FlightAware
12:24AM 44.9820 -87.4100 207° Southwest 460 529 34,000  Level FlightAware
12:25AM 44.9050 -87.4660 207° Southwest 460 529 34,000  Level FlightAware
12:26AM 44.8450 -87.5080 206° Southwest 460 529 34,000  Level FlightAware
12:26AM 44.7870 -87.5500 207° Southwest 460 529 34,000 -660 Level FlightAware
12:27AM 44.6490 -87.6520 208° Southwest 447 514 33,100 -1,080 Descending FlightAware
12:28AM 44.5760 -87.7050 207° Southwest 445 512 32,400 -1,020 Descending FlightAware
12:29AM 44.4980 -87.7620 208° Southwest 440 506 31,700 -1,020 Descending FlightAware
12:29AM 44.4240 -87.8150 207° Southwest 436 502 31,000 -1,080 Descending FlightAware
12:29AM 44.4070 -87.8270 207° Southwest 436 502 30,800 -1,020 Descending FlightAware
12:31AM 44.2790 -87.9180 207° Southwest 434 499 29,700 -960 Descending FlightAware
12:31AM 44.1870 -87.9840 207° Southwest 426 490 28,800 -780 Descending FlightAware
12:32AM 44.1160 -88.0330 206° Southwest 425 489 28,500 -1,080 Descending FlightAware
12:33AM 44.0340 -88.0920 207° Southwest 423 487 27,300 -1,380 Descending FlightAware
12:34AM 43.9580 -88.1460 207° Southwest 421 484 26,600 -960 Descending FlightAware
12:34AM 43.8880 -88.1950 207° Southwest 418 481 26,000 -480 Descending FlightAware
12:35AM 43.8100 -88.2500 207° Southwest 432 497 26,000 -180 Level FlightAware
12:36AM 43.7360 -88.3010 206° Southwest 428 493 25,800 -960 Descending FlightAware
12:36AM 43.6630 -88.3520 207° Southwest 413 475 24,700 -1,620 Descending FlightAware
12:37AM 43.5930 -88.4000 206° Southwest 401 461 23,600 -1,620 Descending FlightAware
12:38AM 43.4990 -88.4660 207° Southwest 400 460 22,100 -1,560 Descending FlightAware
12:39AM 43.4300 -88.5130 206° Southwest 394 453 21,100 -1,380 Descending FlightAware
12:39AM 43.3640 -88.5590 207° Southwest 393 452 20,200 -1,260 Descending FlightAware
12:40AM 43.2980 -88.6050 207° Southwest 385 443 19,400 -1,320 Descending FlightAware
12:41AM 43.2270 -88.6530 206° Southwest 381 438 18,400 -1,440 Descending FlightAware
12:42AM 43.1640 -88.6960 206° Southwest 382 440 17,400 -1,440 Descending FlightAware
12:42AM 43.0950 -88.7430 206° Southwest 375 432 16,400 -1,380 Descending FlightAware
12:43AM 43.0350 -88.7840 207° Southwest 369 425 15,500 -1,200 Descending FlightAware
12:44AM 42.9650 -88.8170 199° South 363 418 14,800 -1,020 Descending FlightAware
12:44AM 42.9020 -88.8470 199° South 358 412 14,100 -720 Descending FlightAware
12:45AM 42.8480 -88.8640 193° South 357 411 13,900 -1,020 Descending FlightAware
12:45AM 42.8170 -88.8230 136° Southeast 340 391 13,200 -1,380 Descending FlightAware
12:46AM 42.7610 -88.7840 153° Southeast 336 387 12,600 -1,200 Descending FlightAware
12:47AM 42.6990 -88.7380 151° Southeast 324 373 11,500 -1,260 Descending FlightAware
12:47AM 42.6460 -88.6980 151° Southeast 302 348 10,800 -960 Descending FlightAware
12:48AM 42.5970 -88.6630 152° Southeast 294 338 10,200 -1,020 Descending FlightAware
12:48AM 42.5660 -88.6400 151° Southeast 292 336 9,700 -1,020 Descending FlightAware
12:49AM 42.5350 -88.6160 150° Southeast 292 336 9,300 -720 Descending FlightAware
12:49AM 42.4970 -88.5890 152° Southeast 289 333 9,000 -300 Descending FlightAware
12:50AM 42.4620 -88.5640 152° Southeast 288 331 9,000  Level FlightAware
12:50AM 42.4310 -88.5410 151° Southeast 289 333 9,000  Level FlightAware
12:51AM 42.3960 -88.5160 152° Southeast 288 331 9,000  Level FlightAware
12:51AM 42.3820 -88.5050 150° Southeast 287 330 9,000  Level FlightAware
12:52AM 42.3500 -88.4800 150° Southeast 288 331 9,000  Level FlightAware
12:52AM 42.3320 -88.4670 152° Southeast 289 333 9,000 -840 Level FlightAware
12:52AM 42.2980 -88.4420 151° Southeast 289 333 8,400 -1,320 Descending FlightAware
12:53AM 42.2650 -88.4170 151° Southeast 286 329 7,800 -1,380 Descending FlightAware
12:53AM 42.2330 -88.3930 151° Southeast 281 323 7,100 -1,320 Descending FlightAware
12:54AM 42.2020 -88.3690 150° Southeast 273 314 6,600 -1,080 Descending FlightAware
12:54AM 42.1880 -88.3580 150° Southeast 273 314 6,400 -1,380 Descending FlightAware
12:54AM 42.1600 -88.3310 144° Southeast 271 312 5,700 -1,500 Descending FlightAware
12:55AM 42.1320 -88.3010 142° Southeast 268 308 5,000 -1,200 Descending FlightAware
12:55AM 42.1060 -88.2730 141° Southeast 266 306 4,600 -1,020 Descending FlightAware
12:56AM 42.0810 -88.2470 142° Southeast 255 293 4,100 -780 Descending FlightAware
12:56AM 42.0540 -88.2200 143° Southeast 226 260 3,900 -240 Descending FlightAware
12:57AM 42.0330 -88.1980 142° Southeast 189 217 3,900 -360 Level FlightAware
12:57AM 42.0130 -88.1790 145° Southeast 183 211 3,600 -840 Descending FlightAware
12:58AM 41.9940 -88.1580 141° Southeast 174 200 3,100 -780 Descending FlightAware
12:58AM 41.9810 -88.1340 126° Southeast 173 199 2,900 -240 Descending FlightAware
12:59AM 41.9690 -88.1110 125° Southeast 166 191 2,900  Level FlightAware
12:59AM 41.9680 -88.1040 101° East 159 183 2,900 -360 Level FlightAware
12:59AM 41.9680 -88.0740 90° East 159 183 2,700 -540 Descending FlightAware
01:00AM 41.9690 -88.0420 88° East 144 166 2,200 -840 Descending FlightAware
01:00AM 41.9690 -88.0050 90° East 151 174 1,700 -1,020 Descending FlightAware
01:01AM 41.9690 -87.9730 90° East 157 181 1,300 -900 Descending FlightAware
01:02AM 41.9690 -87.9290 90° East 158 182 600 -600 Descending FlightAware
01:02AM 41.9690 -87.9040 90° East 156 180 600  Level FlightAware
01:09AM 41.9667 -87.9000 143° Southeast  Level FlightAware Approximate